Time;durP1;ratioP1;P1;durP2;ratioP2;P2;SDS_P1;SDS_P2;PMS_P1;PMS_P2;Temp;Humidity;BMP_temperature;BMP_pressure;BME280_temperature;BME280_humidity;BME280_pressure;Samples;Min_cycle;Max_cycle;Signal;HPM_P1;HPM_P2
2022/09/01 00:00:10;;;;;;;3.47;2.30;;;;;;;13.27;100.00;101412.03;5025418;28;20221;-69
2022/09/01 00:02:36;;;;;;;4.03;2.67;;;;;;;13.28;100.00;101413.75;5024577;28;20243;-70
2022/09/01 00:05:06;;;;;;;2.27;1.60;;;;;;;13.32;100.00;101419.81;5027965;28;20682;-70
2022/09/01 00:07:34;;;;;;;1.80;1.50;;;;;;;13.32;100.00;101417.19;5028295;28;20232;-69
2022/09/01 00:10:02;;;;;;;1.73;1.30;;;;;;;13.26;100.00;101410.28;5027981;28;20203;-70
2022/09/01 00:12:29;;;;;;;1.70;1.47;;;;;;;13.31;100.00;101412.81;5028670;28;20739;-71
2022/09/01 00:14:57;;;;;;;1.33;1.23;;;;;;;13.23;100.00;101405.16;5027658;28;20234;-71
2022/09/01 00:17:25;;;;;;;1.73;1.27;;;;;;;13.21;100.00;101414.81;5024125;28;20199;-69
2022/09/01 00:19:52;;;;;;;1.37;1.20;;;;;;;13.22;100.00;101414.75;5025605;28;20215;-70
2022/09/01 00:22:18;;;;;;;1.57;1.10;;;;;;;13.26;100.00;101410.28;5027967;28;20223;-71
2022/09/01 00:24:45;;;;;;;3.50;1.27;;;;;;;13.19;100.00;101407.00;5027930;28;20215;-68
2022/09/01 00:27:11;;;;;;;2.30;1.00;;;;;;;13.20;100.00;101408.69;5025332;28;20201;-69
2022/09/01 00:29:38;;;;;;;0.73;0.73;;;;;;;13.22;100.00;101412.13;5028711;28;20279;-70
2022/09/01 00:32:05;;;;;;;2.10;1.20;;;;;;;13.19;100.00;101408.72;5015902;28;20228;-69
2022/09/01 00:34:33;;;;;;;1.20;1.10;;;;;;;13.14;100.00;101406.25;5010646;28;20214;-70
2022/09/01 00:37:01;;;;;;;1.70;1.10;;;;;;;13.13;100.00;101411.50;5027819;28;20660;-71
2022/09/01 00:39:27;;;;;;;1.00;0.90;;;;;;;13.11;100.00;101410.69;5028192;28;20211;-70
2022/09/01 00:41:54;;;;;;;2.33;1.50;;;;;;;13.03;100.00;101419.59;5010676;28;20224;-71
2022/09/01 00:44:25;;;;;;;4.30;1.80;;;;;;;13.08;100.00;101411.59;4998783;28;20208;-71
2022/09/01 00:46:54;;;;;;;2.13;1.27;;;;;;;13.03;100.00;101414.34;5027230;28;20565;-69
2022/09/01 00:49:26;;;;;;;1.60;1.37;;;;;;;13.01;100.00;101410.88;5002476;28;20215;-70
2022/09/01 00:52:08;;;;;;;1.40;1.20;;;;;;;13.02;100.00;101409.16;5028423;28;20220;-71
2022/09/01 00:54:49;;;;;;;1.97;1.40;;;;;;;12.95;100.00;101416.28;5009209;28;20556;-71
2022/09/01 00:57:19;;;;;;;2.80;0.97;;;;;;;13.07;100.00;101417.75;5030295;28;20696;-70
2022/09/01 00:59:59;;;;;;;1.13;1.03;;;;;;;13.05;100.00;101416.91;5024497;28;20704;-69
2022/09/01 01:02:28;;;;;;;1.10;1.00;;;;;;;13.02;100.00;101410.00;5010514;28;20592;-70
2022/09/01 01:05:08;;;;;;;1.73;1.10;;;;;;;13.08;100.00;101412.44;5028050;28;20192;-70
2022/09/01 01:07:43;;;;;;;1.47;1.10;;;;;;;13.05;100.00;101407.31;5002429;28;20688;-69
2022/09/01 01:10:23;;;;;;;1.73;1.23;;;;;;;13.03;100.00;101405.63;5027076;28;20680;-71
2022/09/01 01:12:59;;;;;;;1.23;0.90;;;;;;;12.99;100.00;101403.97;5013529;28;20300;-71
2022/09/01 01:15:36;;;;;;;1.13;1.03;;;;;;;12.99;100.00;101399.59;5031727;28;20639;-71
2022/09/01 01:18:19;;;;;;;1.13;1.03;;;;;;;13.02;100.00;101398.69;5013727;28;20203;-71
2022/09/01 01:23:44;;;;;;;1.10;0.90;;;;;;;13.07;100.00;101400.28;5027806;28;20196;-70
2022/09/01 01:26:22;;;;;;;1.57;0.97;;;;;;;13.07;100.00;101392.44;5012992;28;20211;-71
2022/09/01 01:29:08;;;;;;;1.07;0.97;;;;;;;13.10;100.00;101399.34;5013125;28;20238;-71
2022/09/01 01:31:57;;;;;;;2.17;1.10;;;;;;;13.04;100.00;101408.19;5026640;28;20707;-71
2022/09/01 01:34:34;;;;;;;0.87;0.83;;;;;;;13.07;100.00;101402.06;5012214;28;20205;-70
2022/09/01 01:37:13;;;;;;;1.53;1.07;;;;;;;13.10;100.00;101404.56;5012965;28;20254;-71
2022/09/01 01:39:52;;;;;;;1.20;1.07;;;;;;;13.06;100.00;101409.03;5011709;28;20568;-72
2022/09/01 01:42:27;;;;;;;2.67;1.00;;;;;;;13.15;100.00;101399.22;5005529;28;20226;-71
2022/09/01 01:45:00;;;;;;;2.07;1.07;;;;;;;13.14;100.00;101406.25;5011530;28;20287;-72
2022/09/01 01:47:33;;;;;;;0.90;0.80;;;;;;;13.16;100.00;101404.44;5012925;28;20228;-71
2022/09/01 01:50:10;;;;;;;0.97;0.83;;;;;;;13.19;100.00;101407.00;5013795;28;20295;-72
2022/09/01 01:52:47;;;;;;;1.90;1.10;;;;;;;13.18;100.00;101401.78;5008271;28;20739;-72
2022/09/01 01:55:20;;;;;;;0.97;0.90;;;;;;;13.30;100.00;101411.06;5009061;28;20300;-72
2022/09/01 01:57:55;;;;;;;0.80;0.80;;;;;;;13.21;100.00;101397.31;5028435;28;20208;-71
2022/09/01 02:00:33;;;;;;;2.37;1.00;;;;;;;13.25;100.00;101404.19;5033131;28;20208;-71
2022/09/01 02:03:16;;;;;;;1.30;0.80;;;;;;;13.20;100.00;101405.22;5012992;28;20211;-72
2022/09/01 02:05:48;;;;;;;1.13;0.80;;;;;;;13.23;100.00;101399.91;5011973;28;20205;-71
2022/09/01 02:08:19;;;;;;;2.50;1.00;;;;;;;13.23;100.00;101399.91;5027689;28;20192;-72
2022/09/01 02:10:50;;;;;;;1.07;1.00;;;;;;;13.23;100.00;101398.16;5008683;28;20192;-71
2022/09/01 02:13:29;;;;;;;1.10;1.00;;;;;;;13.04;100.00;101397.72;5022551;28;20205;-71
2022/09/01 02:16:11;;;;;;;1.83;1.10;;;;;;;13.04;100.00;101402.13;5027881;28;20196;-70
2022/09/01 02:18:47;;;;;;;0.93;0.83;;;;;;;12.99;100.00;101402.22;5026085;28;20204;-72
2022/09/01 02:21:25;;;;;;;1.00;0.90;;;;;;;13.00;100.00;101405.72;5010254;28;20231;-71
2022/09/01 02:24:01;;;;;;;2.47;1.00;;;;;;;13.01;100.00;101403.03;5012741;28;20196;-70
2022/09/01 02:26:39;;;;;;;0.77;0.70;;;;;;;13.01;100.00;101399.56;5016587;28;20219;-70
2022/09/01 02:29:19;;;;;;;1.43;0.97;;;;;;;13.12;100.00;101388.81;5031740;28;20203;-70
2022/09/01 02:31:53;;;;;;;0.90;0.80;;;;;;;13.08;100.00;101399.38;5030124;28;20224;-69
2022/09/01 02:34:30;;;;;;;2.27;0.93;;;;;;;13.16;100.00;101395.72;5012194;28;20208;-70
2022/09/01 02:36:59;;;;;;;0.87;0.83;;;;;;;13.16;100.00;101391.34;5011807;28;20208;-69
2022/09/01 02:39:33;;;;;;;1.10;1.00;;;;;;;13.18;100.00;101386.91;5012339;28;20269;-69
2022/09/01 02:42:05;;;;;;;1.10;1.00;;;;;;;13.19;100.00;101386.03;5008917;28;20219;-71
2022/09/01 02:44:42;;;;;;;2.33;1.00;;;;;;;13.22;100.00;101391.19;5006671;28;20669;-71
2022/09/01 02:47:10;;;;;;;0.87;0.87;;;;;;;13.18;100.00;101386.91;5009938;28;20575;-70
2022/09/01 02:49:44;;;;;;;1.10;0.80;;;;;;;13.22;100.00;101379.84;5011089;28;20703;-72
2022/09/01 02:52:14;;;;;;;2.13;0.90;;;;;;;13.19;100.00;101387.78;5030025;28;20217;-71
2022/09/01 02:54:48;;;;;;;1.10;1.00;;;;;;;13.20;100.00;101385.13;5028933;28;20270;-72
2022/09/01 02:57:21;;;;;;;1.10;1.00;;;;;;;13.15;100.00;101392.22;5015313;28;20196;-70
2022/09/01 02:59:57;;;;;;;1.00;0.90;;;;;;;13.19;100.00;101393.91;5023836;28;20748;-71
2022/09/01 03:02:27;;;;;;;1.23;1.00;;;;;;;13.20;100.00;101387.75;5028174;23;20228;-75
2022/09/01 03:04:54;;;;;;;1.10;1.00;;;;;;;13.19;100.00;101391.28;5022084;28;20298;-75
2022/09/01 03:07:22;;;;;;;1.03;0.90;;;;;;;13.06;100.00;101392.47;5006782;28;20605;-75
2022/09/01 03:09:48;;;;;;;1.33;1.03;;;;;;;13.08;100.00;101393.28;5010109;28;20583;-75
2022/09/01 03:12:15;;;;;;;2.90;1.00;;;;;;;13.15;100.00;101396.63;5007643;28;20203;-75
2022/09/01 03:14:41;;;;;;;1.10;1.00;;;;;;;13.03;100.00;101392.53;5009502;28;20223;-75
2022/09/01 03:17:10;;;;;;;1.23;1.00;;;;;;;13.05;100.00;101395.97;5004981;28;20209;-75
2022/09/01 03:19:41;;;;;;;1.43;1.00;;;;;;;12.96;100.00;101393.56;5011755;28;20674;-75
2022/09/01 03:22:07;;;;;;;0.97;0.83;;;;;;;12.98;100.00;101387.41;5008242;28;20616;-75
2022/09/01 03:24:35;;;;;;;0.80;0.80;;;;;;;13.06;100.00;101390.69;5022634;28;20265;-75
2022/09/01 03:27:01;;;;;;;1.20;1.10;;;;;;;12.95;100.00;101389.25;5008862;28;20585;-75
2022/09/01 03:29:27;;;;;;;1.23;0.90;;;;;;;12.89;100.00;101392.84;5023020;28;20188;-75
2022/09/01 03:31:54;;;;;;;1.10;1.00;;;;;;;12.94;100.00;101384.91;5009069;28;20197;-75
2022/09/01 03:34:22;;;;;;;1.03;0.93;;;;;;;12.79;100.00;101387.00;5006591;28;20825;-75
2022/09/01 03:36:51;;;;;;;1.00;0.90;;;;;;;12.71;100.00;101388.06;5023704;28;20761;-75
2022/09/01 03:39:25;;;;;;;1.23;0.77;;;;;;;12.78;100.00;101393.09;5010886;28;20281;-75
2022/09/01 03:41:54;;;;;;;1.27;1.17;;;;;;;12.69;100.00;101388.94;5007435;28;20262;-75
2022/09/01 03:44:20;;;;;;;1.07;0.90;;;;;;;12.72;100.00;101395.88;5006070;28;20223;-75
2022/09/01 03:46:47;;;;;;;1.00;0.90;;;;;;;12.75;100.00;101395.81;5009517;28;20227;-75
2022/09/01 03:49:14;;;;;;;1.27;1.00;;;;;;;12.72;100.00;101392.38;5010550;28;20200;-75
2022/09/01 03:51:43;;;;;;;1.23;1.13;;;;;;;12.75;100.00;101397.56;5006030;28;20208;-75
2022/09/01 03:54:10;;;;;;;2.07;1.00;;;;;;;12.77;100.00;101403.59;5024465;28;20215;-75
2022/09/01 03:56:40;;;;;;;0.83;0.83;;;;;;;12.65;100.00;101400.38;5006336;28;20633;-75
2022/09/01 03:59:07;;;;;;;1.13;1.03;;;;;;;12.77;100.00;101395.75;5008021;28;20199;-75
2022/09/01 04:01:40;;;;;;;4.67;1.07;;;;;;;12.81;100.00;101394.81;5006736;28;20228;-75
2022/09/01 04:04:06;;;;;;;2.10;1.00;;;;;;;12.73;100.00;101392.34;5019043;28;20599;-75
2022/09/01 04:06:33;;;;;;;1.20;0.97;;;;;;;12.81;100.00;101389.56;5009383;28;20485;-75
2022/09/01 04:09:02;;;;;;;1.30;1.10;;;;;;;12.78;100.00;101393.09;5024355;28;20207;-75
2022/09/01 04:11:32;;;;;;;4.00;1.10;;;;;;;12.79;100.00;101387.00;5001558;28;20204;-75
2022/09/01 04:13:59;;;;;;;1.50;0.90;;;;;;;12.78;100.00;101387.03;5008162;28;20200;-75
2022/09/01 04:19:19;;;;;;;1.60;1.03;;;;;;;12.83;100.00;101387.78;5004573;28;20745;-75
2022/09/01 04:21:49;;;;;;;1.83;1.20;;;;;;;12.85;100.00;101385.97;5000319;28;20222;-75
2022/09/01 04:24:17;;;;;;;2.23;1.30;;;;;;;12.74;100.00;101388.84;5007601;28;20589;-75
2022/09/01 04:26:47;;;;;;;1.27;1.10;;;;;;;12.64;100.00;101396.03;5005667;28;20612;-75
2022/09/01 04:29:13;;;;;;;1.63;1.00;;;;;;;12.60;100.00;101386.53;5002706;28;20192;-75
2022/09/01 04:31:41;;;;;;;1.23;1.10;;;;;;;12.57;100.00;101391.84;5005224;28;20444;-75
2022/09/01 04:34:10;;;;;;;1.10;1.00;;;;;;;12.50;100.00;101395.47;5002332;28;20735;-75
2022/09/01 04:36:40;;;;;;;1.30;1.10;;;;;;;12.50;100.00;101391.13;5004014;28;20200;-75
2022/09/01 04:39:09;;;;;;;1.20;1.10;;;;;;;12.68;100.00;101396.81;4999062;28;20208;-75
2022/09/01 04:41:39;;;;;;;1.20;1.00;;;;;;;12.62;100.00;101396.97;5007889;28;20234;-75
2022/09/01 04:44:07;;;;;;;1.10;1.03;;;;;;;12.55;100.00;101403.25;5006328;28;20231;-75
2022/09/01 04:46:41;;;;;;;0.90;0.90;;;;;;;12.54;100.00;101406.75;5006451;28;20299;-75
2022/09/01 04:49:09;;;;;;;1.53;0.90;;;;;;;12.54;100.00;101405.00;5021240;28;20638;-75
2022/09/01 04:51:39;;;;;;;3.37;1.30;;;;;;;12.59;100.00;101416.19;5010134;28;20700;-75
2022/09/01 04:54:11;;;;;;;1.33;1.00;;;;;;;12.53;100.00;101413.72;5021946;28;20907;-75
2022/09/01 04:56:39;;;;;;;1.27;1.17;;;;;;;12.65;100.00;101403.00;5021371;28;20208;-75
2022/09/01 04:59:12;;;;;;;2.17;1.00;;;;;;;12.64;100.00;101403.03;5006814;28;20196;-75
2022/09/01 05:01:43;;;;;;;1.47;1.17;;;;;;;12.61;100.00;101406.59;5021847;28;20219;-75
2022/09/01 05:04:13;;;;;;;2.73;1.10;;;;;;;12.62;100.00;101410.91;5024448;28;20227;-75
2022/09/01 05:06:42;;;;;;;1.23;1.13;;;;;;;12.64;100.00;101409.13;5004577;28;20192;-75
2022/09/01 05:09:10;;;;;;;1.20;1.10;;;;;;;12.76;100.00;101407.13;5000672;28;20283;-75
2022/09/01 05:11:48;;;;;;;1.20;1.00;;;;;;;12.74;100.00;101407.16;5008101;28;20307;-75
2022/09/01 05:14:25;;;;;;;1.30;0.90;;;;;;;12.77;100.00;101411.44;5012453;28;20234;-75
2022/09/01 05:16:57;;;;;;;1.60;1.00;;;;;;;12.83;100.00;101411.31;5008191;28;20726;-75
2022/09/01 05:19:24;;;;;;;1.33;1.00;;;;;;;12.85;100.00;101406.91;5025182;28;20200;-75
2022/09/01 05:21:53;;;;;;;1.27;1.00;;;;;;;12.85;100.00;101409.53;5009843;28;20224;-75
2022/09/01 05:24:21;;;;;;;1.83;1.00;;;;;;;12.84;100.00;101419.16;5014091;28;20226;-75
2022/09/01 05:26:49;;;;;;;1.33;1.03;;;;;;;12.88;100.00;101415.56;5011795;28;20328;-75
2022/09/01 05:29:17;;;;;;;1.13;1.03;;;;;;;12.88;100.00;101417.31;5017555;28;20204;-75
2022/09/01 05:31:48;;;;;;;1.53;0.90;;;;;;;12.93;100.00;101425.03;5008615;28;20226;-75
2022/09/01 05:34:21;;;;;;;1.33;1.23;;;;;;;12.96;100.00;101419.75;5012313;28;20216;-75
2022/09/01 05:36:50;;;;;;;1.53;1.23;;;;;;;12.98;100.00;101431.03;5012203;28;20192;-75
2022/09/01 05:39:17;;;;;;;1.23;1.00;;;;;;;13.02;100.00;101427.47;5009759;28;20466;-75
2022/09/01 05:41:44;;;;;;;1.20;1.10;;;;;;;13.05;100.00;101438.72;5009983;28;20222;-75
2022/09/01 05:44:12;;;;;;;1.97;1.20;;;;;;;13.07;100.00;101438.69;5027373;28;20703;-75
2022/09/01 05:46:41;;;;;;;1.03;0.93;;;;;;;13.10;100.00;101441.22;5002943;28;20653;-75
2022/09/01 05:49:14;;;;;;;1.20;1.10;;;;;;;13.10;100.00;101433.38;5010290;28;20206;-75
2022/09/01 05:51:43;;;;;;;1.90;1.10;;;;;;;13.13;100.00;101435.91;5009280;28;20211;-75
2022/09/01 05:54:10;;;;;;;1.03;0.93;;;;;;;13.15;100.00;101441.13;5008686;28;20887;-75
2022/09/01 05:56:41;;;;;;;1.00;0.90;;;;;;;13.18;100.00;101428.81;5009502;28;20195;-75
2022/09/01 05:59:09;;;;;;;1.80;1.13;;;;;;;13.17;100.00;101432.31;5010143;28;20287;-75
2022/09/01 06:01:39;;;;;;;1.00;0.90;;;;;;;13.16;100.00;101437.63;5006888;28;20285;-75
2022/09/01 06:04:08;;;;;;;1.37;1.20;;;;;;;13.15;100.00;101436.75;4994491;28;20221;-75
2022/09/01 06:06:39;;;;;;;1.37;1.10;;;;;;;13.20;100.00;101434.03;4994515;28;20216;-75
2022/09/01 06:09:08;;;;;;;1.50;0.90;;;;;;;13.28;100.00;101439.94;4997658;28;20270;-75
2022/09/01 06:11:35;;;;;;;1.17;1.00;;;;;;;13.36;100.00;101437.16;4991377;28;20209;-75
2022/09/01 06:14:02;;;;;;;1.10;1.00;;;;;;;13.37;100.00;101438.91;5007207;28;20220;-75
2022/09/01 06:16:29;;;;;;;1.87;1.13;;;;;;;13.33;100.00;101440.72;4995307;28;20204;-75
2022/09/01 06:18:58;;;;;;;1.23;1.10;;;;;;;13.35;100.00;101433.69;4998402;28;20209;-75
2022/09/01 06:21:27;;;;;;;2.07;1.10;;;;;;;13.37;100.00;101438.91;4993429;28;20700;-75
2022/09/01 06:23:54;;;;;;;1.33;1.00;;;;;;;13.41;100.00;101435.28;5006850;28;20200;-75
2022/09/01 06:26:25;;;;;;;3.27;1.00;;;;;;;13.54;100.00;101443.69;5003643;28;20204;-75
2022/09/01 06:28:53;;;;;;;1.77;1.30;;;;;;;13.67;100.00;101446.84;5012289;28;20201;-75
2022/09/01 06:31:22;;;;;;;2.50;1.00;;;;;;;13.79;100.00;101454.38;4998576;28;20197;-75
2022/09/01 06:33:52;;;;;;;1.77;1.30;;;;;;;13.82;100.00;101451.69;5003266;28;20225;-75
2022/09/01 06:36:22;;;;;;;1.20;1.07;;;;;;;13.82;100.00;101454.31;4988425;28;20205;-75
2022/09/01 06:38:49;;;;;;;1.47;1.13;;;;;;;13.85;100.00;101451.63;4998652;28;20616;-75
2022/09/01 06:41:18;;;;;;;1.40;1.30;;;;;;;13.93;100.00;101452.28;5014364;28;20206;-75
2022/09/01 06:43:45;;;;;;;1.90;1.07;;;;;;;13.97;100.00;101459.16;5003887;28;20224;-75
2022/09/01 06:46:11;;;;;;;2.70;1.40;;;;;;;14.05;100.00;101453.69;5001245;28;20212;-75
2022/09/01 06:48:45;;;;;;;1.67;1.20;;;;;;;14.13;100.00;101454.34;4996433;28;20294;-75
2022/09/01 06:51:14;;;;;;;3.20;1.47;;;;;;;14.22;100.00;101460.25;4989899;28;20287;-75
2022/09/01 06:53:42;;;;;;;1.50;1.40;;;;;;;14.32;100.00;101461.72;4997404;28;20207;-75
2022/09/01 06:56:12;;;;;;;1.33;1.00;;;;;;;14.42;100.00;101460.53;4992984;28;20200;-75
2022/09/01 06:58:40;;;;;;;1.47;1.30;;;;;;;14.50;100.00;101463.78;5011875;28;20211;-75
2022/09/01 07:01:14;;;;;;;1.20;1.10;;;;;;;14.55;100.00;101464.50;4998798;28;20214;-75
2022/09/01 07:03:41;;;;;;;1.07;1.03;;;;;;;14.62;100.00;101459.97;5014293;28;20698;-75
2022/09/01 07:06:23;;;;;;;1.40;1.20;;;;;;;14.72;100.00;101457.94;5006338;28;20576;-75
2022/09/01 07:09:11;;;;;;;1.63;1.33;;;;;;;14.85;100.00;101455.81;5023086;28;20336;-74
2022/09/01 07:11:39;;;;;;;2.03;1.33;;;;;;;14.86;100.00;101453.16;5025243;28;20191;-74
2022/09/01 07:14:06;;;;;;;2.27;1.30;;;;;;;14.92;100.00;101454.72;5011179;28;20226;-75
2022/09/01 07:16:39;;;;;;;1.50;1.23;;;;;;;15.00;100.00;101457.09;5028724;28;20290;-75
2022/09/01 07:19:10;;;;;;;1.23;1.00;;;;;;;15.06;100.00;101459.53;5007156;28;20731;-74
2022/09/01 07:21:37;;;;;;;1.57;1.27;;;;;;;15.14;100.00;101460.13;5007548;28;20257;-74
2022/09/01 07:24:04;;;;;;;2.17;1.40;;;;;;;15.23;100.00;101459.84;5008405;28;20559;-75
2022/09/01 07:26:34;;;;;;;1.57;1.10;;;;;;;15.34;100.00;101459.50;5008807;28;20417;-74
2022/09/01 07:29:03;;;;;;;1.20;1.10;;;;;;;15.40;100.00;101466.31;5024349;28;20199;-74
2022/09/01 07:31:33;;;;;;;1.70;1.50;;;;;;;15.47;100.00;101460.81;5025559;28;20196;-75
2022/09/01 07:34:03;;;;;;;1.50;1.20;;;;;;;15.64;100.00;101469.91;5022725;28;20198;-75
2022/09/01 07:36:30;;;;;;;2.30;1.43;;;;;;;15.71;100.00;101460.91;5006839;28;20207;-75
2022/09/01 07:38:56;;;;;;;1.23;1.13;;;;;;;15.77;100.00;101460.69;5010116;28;20254;-75
2022/09/01 07:41:25;;;;;;;1.77;1.37;;;;;;;15.81;100.00;101469.34;5023336;28;20214;-75
2022/09/01 07:44:19;;;;;;;6.03;1.70;;;;;;;15.99;100.00;101473.09;5004543;28;20909;-74
2022/09/01 07:47:22;;;;;;;1.10;1.00;;;;;;;16.01;100.00;101472.16;5005892;28;20211;-75
2022/09/01 07:49:48;;;;;;;2.30;1.30;;;;;;;16.06;100.00;101467.59;5003909;28;20590;-75
2022/09/01 07:52:16;;;;;;;1.60;1.40;;;;;;;16.24;100.00;101470.47;5008942;28;21505;-74
2022/09/01 07:54:44;;;;;;;1.17;1.10;;;;;;;16.28;100.00;101472.06;5010906;28;20216;-75
2022/09/01 07:57:11;;;;;;;2.10;1.40;;;;;;;16.35;100.00;101462.19;5008519;28;20227;-75
2022/09/01 07:59:39;;;;;;;2.70;1.37;;;;;;;16.47;100.00;101466.97;5009389;28;20200;-74
2022/09/01 08:02:17;;;;;;;1.43;1.13;;;;;;;16.50;100.00;101474.78;5006922;28;20230;-74
2022/09/01 08:04:44;;;;;;;1.17;1.03;;;;;;;16.64;100.00;101479.53;5005541;28;20330;-74
2022/09/01 08:07:11;;;;;;;1.10;1.00;;;;;;;16.71;100.00;101485.38;5007276;28;20204;-74
2022/09/01 08:09:37;;;;;;;2.20;1.30;;;;;;;16.77;100.00;101480.75;5011307;28;20627;-74
2022/09/01 08:12:05;;;;;;;1.37;1.27;;;;;;;16.80;100.00;101485.91;5028816;28;20568;-74
2022/09/01 08:14:35;;;;;;;1.30;1.13;;;;;;;16.90;100.00;101482.94;5005485;28;20222;-74
2022/09/01 08:17:04;;;;;;;1.47;1.10;;;;;;;17.07;100.00;101482.28;5007479;28;20203;-74
2022/09/01 08:19:30;;;;;;;2.03;1.17;;;;;;;17.13;100.00;101493.44;5005853;28;20211;-74
2022/09/01 08:22:07;;;;;;;4.27;1.23;;;;;;;17.23;100.00;101486.84;5008795;28;20204;-74
2022/09/01 08:24:49;;;;;;;1.10;0.97;;;;;;;17.38;100.00;101489.81;5007471;28;20224;-74
2022/09/01 08:27:15;;;;;;;1.93;0.93;;;;;;;17.40;100.00;101498.53;5023474;28;20247;-74
2022/09/01 08:29:42;;;;;;;3.40;0.93;;;;;;;17.40;100.00;101491.47;5009579;28;20200;-74
2022/09/01 08:32:10;;;;;;;2.10;1.10;;;;;;;17.56;100.00;101494.31;5021270;28;20227;-74
2022/09/01 08:34:38;;;;;;;2.33;0.90;;;;;;;17.64;100.00;101491.34;5018249;28;20271;-74
2022/09/01 08:37:04;;;;;;;2.00;1.10;;;;;;;17.76;100.00;101487.34;5002887;28;20210;-74
2022/09/01 08:39:31;;;;;;;1.20;1.10;;;;;;;17.85;100.00;101494.84;5021784;28;20287;-74
2022/09/01 08:42:06;;;;;;;0.93;0.87;;;;;;;17.90;100.00;101495.56;5006828;28;20258;-74
2022/09/01 08:44:38;;;;;;;1.30;1.00;;;;;;;17.85;100.00;101494.84;5002234;28;20727;-74
2022/09/01 08:47:09;;;;;;;1.87;0.87;;;;;;;18.00;100.00;101497.81;5024403;28;20204;-74
2022/09/01 08:49:39;;;;;;;1.73;1.03;;;;;;;18.05;100.00;101491.41;5022707;28;20249;-74
2022/09/01 08:52:13;;;;;;;1.10;1.00;;;;;;;18.15;100.00;101494.47;5020326;28;20513;-74
2022/09/01 08:54:45;;;;;;;0.80;0.80;;;;;;;18.21;97.13;101499.50;5021248;28;20725;-74
2022/09/01 08:57:16;;;;;;;1.00;0.87;;;;;;;18.16;97.47;101498.84;5001195;28;20286;-74
2022/09/01 09:00:02;;;;;;;0.70;0.70;;;;;;;18.42;95.09;101508.25;5021715;28;20250;-74
2022/09/01 09:02:45;;;;;;;0.93;0.90;;;;;;;18.50;95.78;101494.69;5022761;28;20311;-74
2022/09/01 09:05:29;;;;;;;0.87;0.80;;;;;;;18.62;95.85;101495.91;5018841;28;20223;-74
2022/09/01 09:08:16;;;;;;;0.80;0.70;;;;;;;18.58;91.73;101497.84;5019428;28;20206;-74
2022/09/01 09:10:51;;;;;;;1.27;0.90;;;;;;;18.49;91.04;101504.41;5004998;28;20262;-74
2022/09/01 09:13:24;;;;;;;0.97;0.80;;;;;;;18.61;93.21;101500.34;5020122;28;20235;-74
2022/09/01 09:15:54;;;;;;;1.27;0.70;;;;;;;18.73;91.87;101505.06;5021478;28;20220;-74
2022/09/01 09:18:28;;;;;;;1.90;0.80;;;;;;;18.65;88.03;101504.56;5021175;28;20665;-74
2022/09/01 09:20:57;;;;;;;0.73;0.60;;;;;;;18.72;91.27;101500.69;5019460;28;20591;-74
2022/09/01 09:23:29;;;;;;;1.53;0.93;;;;;;;18.95;91.01;101492.66;5021107;28;20714;-74
2022/09/01 09:25:56;;;;;;;2.33;0.87;;;;;;;19.12;95.75;101490.06;5020725;28;20234;-74
2022/09/01 09:28:22;;;;;;;1.20;1.00;;;;;;;19.19;91.35;101499.41;5025910;28;20211;-74
2022/09/01 09:30:49;;;;;;;1.57;0.90;;;;;;;19.17;91.28;101485.44;5023243;28;20563;-74
2022/09/01 09:33:34;;;;;;;1.20;0.80;;;;;;;19.39;96.25;101482.56;5025090;28;20211;-74
2022/09/01 09:36:18;;;;;;;1.17;1.00;;;;;;;19.56;87.72;101489.66;5024395;28;20224;-74
2022/09/01 09:38:45;;;;;;;1.23;0.90;;;;;;;19.27;86.51;101491.94;5025918;28;20282;-74
2022/09/01 09:41:16;;;;;;;1.00;0.80;;;;;;;19.17;86.01;101495.13;5025353;28;20204;-74
2022/09/01 09:43:47;;;;;;;1.00;0.90;;;;;;;19.25;86.22;101492.97;5027776;28;20411;-74
2022/09/01 09:46:22;;;;;;;0.67;0.67;;;;;;;19.14;85.45;101492.63;5024083;28;20273;-74
2022/09/01 09:48:50;;;;;;;0.77;0.70;;;;;;;19.11;86.60;101485.72;5025152;28;20290;-74
2022/09/01 09:51:21;;;;;;;1.13;0.73;;;;;;;19.02;87.94;101483.50;5025324;28;20195;-74
2022/09/01 09:53:48;;;;;;;0.77;0.70;;;;;;;18.81;85.73;101488.00;5023131;28;20211;-74
2022/09/01 09:56:18;;;;;;;1.23;0.60;;;;;;;18.72;86.52;101492.78;5025715;28;20204;-74
2022/09/01 09:58:47;;;;;;;1.33;0.83;;;;;;;18.63;85.67;101482.66;5023321;28;20192;-74
2022/09/01 10:01:28;;;;;;;1.23;0.73;;;;;;;18.82;87.19;101482.69;5022860;28;20227;-74
2022/09/01 10:03:57;;;;;;;1.03;0.70;;;;;;;19.16;88.02;101475.78;5025712;28;20224;-74
2022/09/01 10:06:33;;;;;;;0.80;0.63;;;;;;;19.22;82.35;101487.81;5025436;28;20258;-74
2022/09/01 10:09:01;;;;;;;0.63;0.60;;;;;;;19.08;82.93;101491.13;5026402;28;20192;-74
2022/09/01 10:11:33;;;;;;;0.70;0.70;;;;;;;19.09;87.11;101479.66;5026566;28;20200;-74
2022/09/01 10:13:59;;;;;;;1.00;0.70;;;;;;;19.28;83.39;101485.75;5026033;28;20559;-74
2022/09/01 10:16:30;;;;;;;0.90;0.60;;;;;;;19.42;80.53;101485.06;5024706;28;20211;-74
2022/09/01 10:18:59;;;;;;;1.27;0.80;;;;;;;19.70;82.91;101470.47;5023436;28;20196;-74
2022/09/01 10:21:33;;;;;;;0.90;0.67;;;;;;;20.02;83.39;101460.88;5024815;28;20200;-74
2022/09/01 10:24:02;;;;;;;1.50;0.80;;;;;;;20.27;77.54;101464.00;5025904;28;20254;-74
2022/09/01 10:26:34;;;;;;;1.77;0.70;;;;;;;20.41;76.88;101480.00;5025984;28;20595;-74
2022/09/01 10:29:07;;;;;;;0.87;0.60;;;;;;;20.62;77.82;101472.72;5024363;28;20208;-74
2022/09/01 10:31:36;;;;;;;0.80;0.70;;;;;;;20.72;77.90;101470.41;5025220;28;20211;-74
2022/09/01 10:34:05;;;;;;;1.07;0.70;;;;;;;20.81;72.84;101475.22;5023882;28;20211;-74
2022/09/01 10:36:35;;;;;;;2.37;0.67;;;;;;;20.99;75.46;101465.38;5023304;28;20300;-74
2022/09/01 10:39:02;;;;;;;1.40;0.60;;;;;;;21.23;77.35;101465.75;5024611;28;20204;-74
2022/09/01 10:41:49;;;;;;;1.98;0.70;;;;;;;21.32;73.14;101469.69;5024374;28;20274;-74
2022/09/01 10:44:21;;;;;;;0.70;0.70;;;;;;;21.33;72.77;101472.22;5024615;28;20219;-74
2022/09/01 10:46:48;;;;;;;1.45;1.02;;;;;;;21.30;70.72;101472.41;5025021;28;20188;-74
2022/09/01 10:49:50;;;;;;;1.15;1.05;;;;;;;21.21;69.34;101472.94;5025122;28;20571;-74
2022/09/01 10:52:54;;;;;;;2.08;1.10;;;;;;;21.12;70.30;101458.41;5023309;28;20211;-74
2022/09/01 10:55:24;;;;;;;1.40;0.80;;;;;;;21.05;68.43;101475.59;5022583;28;20242;-74
2022/09/01 10:57:56;;;;;;;1.17;0.90;;;;;;;20.84;69.85;101468.88;5023869;28;20652;-74
2022/09/01 11:01:01;;;;;;;1.05;0.90;;;;;;;20.80;69.56;101460.25;5022515;28;20219;-74
2022/09/01 11:03:53;;;;;;;1.77;0.93;;;;;;;21.03;71.39;101464.25;5025884;28;20305;-74
2022/09/01 11:06:52;;;;;;;1.38;0.70;;;;;;;21.11;70.23;101462.00;5024478;28;20575;-74
2022/09/01 11:09:23;;;;;;;1.83;0.90;;;;;;;21.10;73.22;101455.00;5023815;28;20692;-74
2022/09/01 11:12:06;;;;;;;1.90;0.90;;;;;;;20.77;72.81;101465.69;5023587;28;20294;-74
2022/09/01 11:14:34;;;;;;;0.52;0.52;;;;;;;20.73;72.46;101465.03;5023095;28;20223;-74
2022/09/01 11:17:12;;;;;;;1.55;0.80;;;;;;;20.75;72.28;101463.13;5024397;28;20203;-74
2022/09/01 11:19:42;;;;;;;1.35;0.90;;;;;;;20.96;74.54;101458.44;5023145;28;20195;-74
2022/09/01 11:22:28;;;;;;;1.45;0.80;;;;;;;21.11;70.59;101450.56;5025252;28;20210;-74
2022/09/01 11:25:32;;;;;;;1.88;1.00;;;;;;;21.10;70.46;101465.59;5024159;28;20232;-74
2022/09/01 11:28:18;;;;;;;0.90;0.80;;;;;;;21.26;71.89;101462.06;5024150;28;20309;-74
2022/09/01 11:30:51;;;;;;;1.02;0.60;;;;;;;21.23;72.04;101462.25;5006586;28;20223;-74
2022/09/01 11:33:34;;;;;;;1.63;0.93;;;;;;;21.26;72.49;101467.38;5023622;28;20644;-74
2022/09/01 11:36:04;;;;;;;0.65;0.63;;;;;;;20.93;70.17;101468.34;5024208;28;20600;-74
2022/09/01 11:38:45;;;;;;;0.75;0.68;;;;;;;20.87;72.03;101466.91;5023384;28;20196;-74
2022/09/01 11:41:23;;;;;;;1.27;0.90;;;;;;;20.64;72.58;101460.25;5023220;28;20195;-74
2022/09/01 11:43:54;;;;;;;2.72;1.10;;;;;;;20.51;71.68;101462.69;5011831;28;20618;-74
2022/09/01 11:46:24;;;;;;;2.13;1.10;;;;;;;20.40;72.66;101459.75;5024198;28;20571;-74